createdAt,value
2019-05-15T00:01:53.036Z,99.90
2019-05-15T00:04:20.592Z,99.90
2019-05-15T00:06:48.609Z,99.90
2019-05-15T00:09:16.116Z,99.90
2019-05-15T00:11:43.272Z,99.90
2019-05-15T00:14:10.419Z,99.90
2019-05-15T00:16:38.606Z,99.90
2019-05-15T00:19:08.497Z,99.90
2019-05-15T00:21:35.393Z,99.90
2019-05-15T00:24:02.769Z,99.90
2019-05-15T00:26:30.165Z,99.90
2019-05-15T00:29:09.526Z,99.90
2019-05-15T00:31:28.982Z,99.90
2019-05-15T00:33:55.651Z,99.90
2019-05-15T00:36:22.895Z,99.90
2019-05-15T00:38:50.143Z,99.90
2019-05-15T00:41:18.520Z,99.90
2019-05-15T00:43:45.928Z,99.90
2019-05-15T00:46:13.082Z,99.90
2019-05-15T00:48:40.524Z,99.90
2019-05-15T00:51:08.452Z,99.90
2019-05-15T00:53:36.283Z,99.90
2019-05-15T00:56:04.146Z,99.90
2019-05-15T00:58:31.309Z,99.90
2019-05-15T01:00:59.155Z,99.90
2019-05-15T01:03:27.853Z,99.90
2019-05-15T01:05:55.273Z,99.90
2019-05-15T01:08:22.781Z,99.90
2019-05-15T01:10:50.183Z,99.90
2019-05-15T01:13:18.978Z,99.90
2019-05-15T01:15:48.771Z,99.90
2019-05-15T01:18:15.853Z,99.90
2019-05-15T01:20:43.443Z,99.90
2019-05-15T01:23:10.727Z,99.90
2019-05-15T01:25:39.042Z,99.90
2019-05-15T01:28:09.098Z,99.90
2019-05-15T01:30:36.142Z,99.90
2019-05-15T01:33:03.632Z,99.90
2019-05-15T01:35:30.875Z,99.90
2019-05-15T01:37:58.591Z,99.90
2019-05-15T01:40:26.183Z,99.90
2019-05-15T01:42:53.350Z,99.90
2019-05-15T01:45:20.804Z,99.90
2019-05-15T01:47:48.115Z,99.90
2019-05-15T01:50:15.630Z,99.90
2019-05-15T01:52:42.879Z,99.90
2019-05-15T01:55:11.237Z,99.90
2019-05-15T01:57:38.714Z,99.90
2019-05-15T02:00:08.691Z,99.90
2019-05-15T02:02:38.819Z,99.90
2019-05-15T02:05:08.435Z,99.90
2019-05-15T02:07:38.755Z,99.90
2019-05-15T02:10:09.144Z,99.90
2019-05-15T02:12:38.480Z,99.90
2019-05-15T02:15:08.351Z,99.90
2019-05-15T02:17:35.010Z,99.90
2019-05-15T02:20:02.903Z,99.90
2019-05-15T02:22:30.379Z,99.90
2019-05-15T02:24:59.182Z,99.90
2019-05-15T02:27:28.764Z,99.90
2019-05-15T02:30:13.045Z,99.90
2019-05-15T02:32:24.877Z,99.90
2019-05-15T02:34:52.263Z,99.90
2019-05-15T02:37:19.634Z,99.90
2019-05-15T02:39:49.326Z,99.90
2019-05-15T02:42:19.031Z,99.90
2019-05-15T02:44:45.245Z,99.90
2019-05-15T02:47:12.494Z,99.90
2019-05-15T02:49:39.939Z,99.90
2019-05-15T02:52:09.739Z,99.90
2019-05-15T02:54:36.542Z,99.90
2019-05-15T02:57:03.911Z,99.90
2019-05-15T02:59:31.264Z,99.90
2019-05-15T03:01:59.379Z,99.90
2019-05-15T03:04:29.044Z,99.90
2019-05-15T03:06:56.116Z,99.90
2019-05-15T03:09:23.460Z,99.90
2019-05-15T03:11:50.940Z,99.90
2019-05-15T03:14:21.365Z,99.90
2019-05-15T03:16:49.702Z,99.90
2019-05-15T03:19:19.321Z,99.90
2019-05-15T03:21:49.695Z,99.90
2019-05-15T03:24:19.168Z,99.90
2019-05-15T03:26:45.709Z,99.90
2019-05-15T03:29:12.874Z,99.90
2019-05-15T03:31:58.874Z,99.90
2019-05-15T03:34:20.414Z,99.90
2019-05-15T03:36:44.263Z,99.90
2019-05-15T03:39:09.683Z,99.90
2019-05-15T03:41:39.278Z,99.90
2019-05-15T03:44:09.222Z,99.90
2019-05-15T03:46:35.734Z,99.90
2019-05-15T03:49:03.190Z,99.90
2019-05-15T03:51:30.653Z,99.90
2019-05-15T03:54:00.288Z,99.90
2019-05-15T03:56:29.574Z,99.90
2019-05-15T03:58:59.780Z,99.90
2019-05-15T04:01:34.292Z,99.90
2019-05-15T04:03:59.808Z,99.90
2019-05-15T04:06:29.642Z,99.90
2019-05-15T04:08:58.554Z,99.90
2019-05-15T04:11:25.469Z,99.90
2019-05-15T04:13:52.912Z,99.90
2019-05-15T04:16:20.188Z,99.90
2019-05-15T04:18:49.064Z,99.90
2019-05-15T04:21:19.685Z,99.90
2019-05-15T04:23:50.050Z,99.90
2019-05-15T04:26:19.394Z,99.90
2019-05-15T04:28:49.429Z,99.90
2019-05-15T04:31:19.187Z,99.90
2019-05-15T04:33:48.870Z,99.90
2019-05-15T04:36:14.802Z,99.90
2019-05-15T04:38:42.061Z,99.90
2019-05-15T04:41:09.967Z,99.90
2019-05-15T04:43:43.727Z,99.90
2019-05-15T04:46:09.802Z,99.90
2019-05-15T04:48:35.966Z,99.90
2019-05-15T04:51:03.367Z,99.90
2019-05-15T04:53:33.150Z,99.90
2019-05-15T04:56:00.066Z,99.90
2019-05-15T04:58:29.724Z,99.90
2019-05-15T05:00:59.909Z,99.90
2019-05-15T05:03:29.211Z,99.90
2019-05-15T05:05:58.842Z,99.90
2019-05-15T05:08:25.225Z,99.90
2019-05-15T05:10:52.560Z,99.90
2019-05-15T05:13:20.497Z,99.90
2019-05-15T05:15:50.267Z,99.90
2019-05-15T05:18:19.053Z,99.90
2019-05-15T05:20:48.475Z,99.90
2019-05-15T05:23:18.886Z,99.90
2019-05-15T05:25:45.686Z,99.90
2019-05-15T05:28:13.314Z,99.90
2019-05-15T05:30:41.005Z,99.90
2019-05-15T05:33:08.597Z,99.90
2019-05-15T05:35:36.139Z,99.90
2019-05-15T05:38:03.505Z,99.90
2019-05-15T05:40:30.923Z,99.90
2019-05-15T05:42:59.611Z,99.90
2019-05-15T05:45:28.795Z,99.90
2019-05-15T05:47:58.059Z,99.90
2019-05-15T05:50:38.758Z,99.90
2019-05-15T05:53:08.823Z,99.90
2019-05-15T05:55:38.314Z,99.90
2019-05-15T05:58:08.039Z,99.90
2019-05-15T06:00:48.610Z,99.90
2019-05-15T06:03:15.269Z,99.90
2019-05-15T06:05:42.737Z,99.90
2019-05-15T06:08:10.373Z,99.90
2019-05-15T06:10:38.756Z,99.90
2019-05-15T06:13:08.683Z,99.90
2019-05-15T06:15:37.918Z,99.90
2019-05-15T06:18:08.342Z,99.90
2019-05-15T06:20:41.065Z,99.90
2019-05-15T06:23:08.521Z,99.90
2019-05-15T06:25:36.060Z,99.90
2019-05-15T06:28:03.811Z,99.90
2019-05-15T06:30:31.497Z,99.90
2019-05-15T06:33:08.376Z,99.90
2019-05-15T06:35:31.188Z,99.90
2019-05-15T06:37:59.062Z,99.90
2019-05-15T06:40:28.893Z,99.90
2019-05-15T06:42:55.968Z,99.90
2019-05-15T06:45:24.378Z,99.90
2019-05-15T06:47:51.638Z,99.90
2019-05-15T06:50:38.980Z,99.90
2019-05-15T06:53:10.456Z,99.90
2019-05-15T06:55:38.613Z,99.90
2019-05-15T06:58:05.380Z,99.90
2019-05-15T07:00:32.841Z,99.90
2019-05-15T07:03:00.248Z,99.90
2019-05-15T07:05:29.455Z,99.90
2019-05-15T07:07:58.535Z,99.90
2019-05-15T07:10:28.668Z,99.90
2019-05-15T07:13:02.827Z,99.90
2019-05-15T07:15:30.275Z,99.90
2019-05-15T07:17:58.102Z,99.90
2019-05-15T07:20:28.484Z,99.90
2019-05-15T07:22:58.458Z,99.90
2019-05-15T07:25:25.442Z,99.90
2019-05-15T07:27:53.049Z,99.50
2019-05-15T07:30:21.360Z,99.20
2019-05-15T07:32:48.889Z,97.00
2019-05-15T07:35:19.154Z,99.20
2019-05-15T07:37:47.862Z,94.10
2019-05-15T07:40:19.340Z,94.30
2019-05-15T07:42:49.011Z,94.90
2019-05-15T07:45:19.796Z,95.50
2019-05-15T07:47:48.938Z,96.40
2019-05-15T07:50:21.839Z,94.90
2019-05-15T07:52:49.091Z,97.00
2019-05-15T07:55:18.511Z,96.00
2019-05-15T07:57:45.951Z,97.50
2019-05-15T08:00:14.680Z,96.80
2019-05-15T08:02:42.943Z,94.00
2019-05-15T08:05:11.285Z,94.80
2019-05-15T08:07:39.073Z,93.80
2019-05-15T08:10:08.734Z,92.90
2019-05-15T08:12:39.274Z,92.90
2019-05-15T08:15:10.090Z,92.80
2019-05-15T08:17:56.070Z,93.00
2019-05-15T08:20:10.638Z,90.90
2019-05-15T08:22:38.486Z,91.40
2019-05-15T08:25:11.361Z,91.20
2019-05-15T08:27:38.292Z,90.90
2019-05-15T08:30:08.941Z,91.40
2019-05-15T08:32:38.652Z,91.00
2019-05-15T08:35:08.077Z,91.60
2019-05-15T08:37:36.303Z,92.20
2019-05-15T08:40:08.402Z,89.20
2019-05-15T08:42:35.454Z,91.10
2019-05-15T08:45:03.627Z,91.60
2019-05-15T08:47:31.088Z,91.40
2019-05-15T08:49:58.244Z,90.40
2019-05-15T08:52:25.628Z,91.30
2019-05-15T08:54:54.686Z,89.80
2019-05-15T08:57:22.035Z,89.50
2019-05-15T08:59:49.380Z,87.70
2019-05-15T09:02:18.577Z,88.20
2019-05-15T09:04:45.687Z,86.20
2019-05-15T09:07:12.931Z,85.00
2019-05-15T09:09:40.209Z,82.90
2019-05-15T09:12:08.283Z,81.30
2019-05-15T09:14:37.934Z,77.80
2019-05-15T09:17:05.203Z,76.50
2019-05-15T09:19:32.356Z,76.00
2019-05-15T09:21:59.726Z,76.00
2019-05-15T09:24:28.637Z,73.10
2019-05-15T09:26:56.143Z,75.20
2019-05-15T09:29:23.303Z,74.50
2019-05-15T09:31:50.579Z,74.40
2019-05-15T09:34:18.603Z,74.50
2019-05-15T09:36:48.428Z,75.20
2019-05-15T09:39:15.355Z,72.40
2019-05-15T09:41:42.697Z,74.30
2019-05-15T09:44:10.100Z,72.30
2019-05-15T09:46:38.275Z,74.40
2019-05-15T09:49:08.610Z,71.90
2019-05-15T09:51:35.215Z,70.00
2019-05-15T09:54:02.703Z,69.80
2019-05-15T09:56:29.984Z,70.20
2019-05-15T09:58:58.208Z,72.50
2019-05-15T10:01:28.528Z,69.10
2019-05-15T10:03:56.262Z,68.10
2019-05-15T10:06:23.414Z,66.50
2019-05-15T10:08:50.748Z,65.60
2019-05-15T10:11:19.780Z,65.70
2019-05-15T10:13:47.420Z,66.60
2019-05-15T10:16:14.673Z,70.00
2019-05-15T10:18:41.866Z,64.10
2019-05-15T10:21:09.336Z,62.90
2019-05-15T10:23:40.045Z,63.00
2019-05-15T10:26:13.262Z,57.60
2019-05-15T10:28:35.357Z,59.00
2019-05-15T10:31:03.785Z,53.90
2019-05-15T10:33:31.036Z,52.50
2019-05-15T10:35:59.119Z,51.30
2019-05-15T10:38:28.516Z,47.00
2019-05-15T10:41:08.521Z,45.80
2019-05-15T10:43:25.084Z,43.10
2019-05-15T10:45:54.694Z,44.90
2019-05-15T10:48:21.577Z,44.40
2019-05-15T10:50:48.927Z,43.00
2019-05-15T10:53:18.773Z,42.90
2019-05-15T10:55:46.265Z,42.40
2019-05-15T10:58:17.076Z,40.60
2019-05-15T11:00:42.791Z,40.60
2019-05-15T11:03:10.163Z,40.90
2019-05-15T11:05:44.922Z,40.80
2019-05-15T11:08:08.323Z,41.50
2019-05-15T11:10:38.556Z,40.80
2019-05-15T11:13:05.686Z,38.60
2019-05-15T11:15:32.975Z,38.60
2019-05-15T11:18:00.405Z,40.70
2019-05-15T11:20:27.685Z,39.80
2019-05-15T11:22:55.034Z,37.90
2019-05-15T11:25:22.561Z,38.40
2019-05-15T11:27:49.903Z,38.20
2019-05-15T11:30:19.287Z,38.00
2019-05-15T11:32:48.659Z,40.60
2019-05-15T11:35:18.642Z,38.20
2019-05-15T11:37:47.137Z,38.90
2019-05-15T11:40:15.864Z,40.10
2019-05-15T11:42:43.213Z,40.60
2019-05-15T11:45:12.273Z,39.20
2019-05-15T11:47:40.277Z,40.50
2019-05-15T11:50:09.713Z,37.80
2019-05-15T11:52:40.120Z,36.00
2019-05-15T11:55:08.355Z,37.40
2019-05-15T11:57:43.624Z,37.40
2019-05-15T12:00:15.085Z,37.30
2019-05-15T12:02:38.415Z,37.40
2019-05-15T12:05:09.269Z,37.20
2019-05-15T12:07:38.169Z,35.20
2019-05-15T12:10:09.838Z,38.40
2019-05-15T12:12:38.306Z,40.00
2019-05-15T12:15:05.869Z,39.30
2019-05-15T12:17:34.209Z,37.10
2019-05-15T12:20:06.438Z,37.50
2019-05-15T12:22:31.216Z,36.80
2019-05-15T12:25:00.521Z,37.90
2019-05-15T12:27:28.308Z,37.50
2019-05-15T12:29:56.196Z,39.70
2019-05-15T12:32:35.564Z,36.00
2019-05-15T12:34:59.786Z,38.60
2019-05-15T12:37:25.337Z,36.30
2019-05-15T12:59:46.025Z,36.50
2019-05-15T13:02:13.271Z,38.40
2019-05-15T13:04:40.434Z,38.10
2019-05-15T13:07:13.806Z,38.00
2019-05-15T13:09:38.149Z,38.40
2019-05-15T13:12:05.730Z,38.20
2019-05-15T13:14:33.108Z,37.30
2019-05-15T13:17:00.577Z,38.60
2019-05-15T13:19:28.609Z,39.30
2019-05-15T13:21:57.838Z,39.60
2019-05-15T13:24:24.989Z,37.70
2019-05-15T13:26:52.409Z,39.50
2019-05-15T13:29:19.787Z,38.70
2019-05-15T13:31:47.848Z,38.00
2019-05-15T13:34:15.329Z,38.20
2019-05-15T13:36:42.580Z,38.50
2019-05-15T13:39:09.953Z,39.20
2019-05-15T13:41:38.607Z,38.50
2019-05-15T13:44:06.069Z,37.10
2019-05-15T13:46:33.333Z,36.60
2019-05-15T13:49:00.598Z,38.00
2019-05-15T13:51:29.028Z,38.50
2019-05-15T13:53:56.671Z,37.70
2019-05-15T13:56:24.012Z,38.80
2019-05-15T13:58:51.352Z,38.20
2019-05-15T14:01:19.633Z,38.80
2019-05-15T14:03:48.337Z,39.90
2019-05-15T14:06:16.066Z,40.20
2019-05-15T14:08:43.270Z,41.60
2019-05-15T14:11:10.684Z,40.20
2019-05-15T14:13:39.185Z,40.30
2019-05-15T14:16:06.817Z,39.50
2019-05-15T14:18:34.164Z,41.10
2019-05-15T14:21:01.424Z,40.30
2019-05-15T14:23:29.579Z,40.80
2019-05-15T14:25:58.867Z,40.60
2019-05-15T14:28:28.331Z,41.00
2019-05-15T14:31:00.905Z,38.80
2019-05-15T14:33:29.149Z,39.30
2019-05-15T14:35:57.756Z,39.40
2019-05-15T14:38:25.148Z,39.30
2019-05-15T14:40:52.518Z,40.20
2019-05-15T14:43:19.662Z,38.00
2019-05-15T14:45:48.043Z,38.00
2019-05-15T14:48:15.577Z,38.20
2019-05-15T14:50:42.967Z,37.30
2019-05-15T14:53:10.356Z,39.10
2019-05-15T14:55:43.222Z,37.40
2019-05-15T14:58:08.318Z,37.20
2019-05-15T15:00:36.020Z,37.90
2019-05-15T15:03:03.304Z,36.50
2019-05-15T15:05:30.995Z,37.20
2019-05-15T15:07:58.682Z,37.80
2019-05-15T15:10:28.925Z,38.50
2019-05-15T15:12:55.683Z,38.90
2019-05-15T15:15:24.961Z,39.00
2019-05-15T15:17:52.146Z,40.20
2019-05-15T15:20:19.711Z,41.10
2019-05-15T15:22:48.508Z,41.00
2019-05-15T15:25:16.132Z,41.80
2019-05-15T15:27:48.720Z,42.10
2019-05-15T15:30:18.794Z,41.60
2019-05-15T15:32:45.437Z,41.10
2019-05-15T15:35:13.201Z,41.80
2019-05-15T15:37:40.382Z,41.00
2019-05-15T15:40:09.084Z,39.80
2019-05-15T15:42:39.083Z,40.10
2019-05-15T15:45:09.015Z,40.50
2019-05-15T15:47:36.022Z,40.10
2019-05-15T15:50:06.315Z,39.60
2019-05-15T15:52:38.206Z,40.80
2019-05-15T15:55:05.163Z,39.70
2019-05-15T15:57:32.570Z,40.20
2019-05-15T16:00:00.089Z,40.40
2019-05-15T16:02:28.085Z,40.30
2019-05-15T16:04:55.556Z,39.20
2019-05-15T16:07:23.417Z,39.10
2019-05-15T16:09:51.446Z,40.20
2019-05-15T16:12:18.724Z,40.00
2019-05-15T16:14:48.677Z,41.40
2019-05-15T16:17:21.248Z,40.30
2019-05-15T16:19:49.277Z,40.50
2019-05-15T16:22:21.886Z,39.70
2019-05-15T16:24:49.461Z,40.60
2019-05-15T16:27:18.271Z,40.30
2019-05-15T16:29:45.576Z,40.90
2019-05-15T16:32:13.103Z,39.20
2019-05-15T16:34:41.103Z,39.50
2019-05-15T16:37:08.928Z,40.30
2019-05-15T16:39:38.182Z,39.30
2019-05-15T16:42:05.371Z,39.60
2019-05-15T16:44:32.642Z,40.00
2019-05-15T16:46:59.915Z,40.60
2019-05-15T16:49:28.481Z,41.40
2019-05-15T16:51:58.161Z,41.10
2019-05-15T16:54:25.105Z,41.10
2019-05-15T16:56:52.291Z,41.70
2019-05-15T16:59:19.866Z,41.30
2019-05-15T17:01:48.911Z,42.00
2019-05-15T17:04:18.176Z,42.20
2019-05-15T17:06:45.668Z,42.40
2019-05-15T17:09:21.007Z,42.50
2019-05-15T17:11:42.078Z,42.60
2019-05-15T17:14:09.531Z,42.90
2019-05-15T17:16:38.686Z,42.80
2019-05-15T17:19:08.561Z,42.60
2019-05-15T17:21:35.340Z,42.80
2019-05-15T17:24:03.525Z,43.10
2019-05-15T17:26:30.783Z,43.90
2019-05-15T17:28:58.345Z,44.00
2019-05-15T17:31:25.760Z,44.10
2019-05-15T17:33:53.031Z,44.40
2019-05-15T17:36:20.319Z,44.60
2019-05-15T17:38:48.711Z,45.40
2019-05-15T17:41:16.154Z,45.50
2019-05-15T17:43:43.397Z,45.90
2019-05-15T17:46:10.850Z,46.30
2019-05-15T17:48:38.833Z,46.30
2019-05-15T17:51:08.942Z,45.70
2019-05-15T17:53:38.272Z,46.20
2019-05-15T17:56:05.690Z,46.50
2019-05-15T17:58:32.860Z,46.90
2019-05-15T18:01:01.668Z,47.20
2019-05-15T18:03:29.116Z,47.60
2019-05-15T18:05:58.844Z,47.50
2019-05-15T18:08:28.476Z,48.00
2019-05-15T18:10:55.030Z,48.00
2019-05-15T18:13:22.401Z,48.60
2019-05-15T18:15:49.691Z,48.70
2019-05-15T18:18:18.676Z,48.90
2019-05-15T18:20:48.301Z,49.50
2019-05-15T18:23:18.743Z,49.90
2019-05-15T18:25:49.186Z,50.40
2019-05-15T18:28:18.632Z,51.00
2019-05-15T18:30:47.904Z,51.30
2019-05-15T18:33:18.392Z,51.80
2019-05-15T18:35:45.432Z,52.30
2019-05-15T18:38:13.190Z,53.40
2019-05-15T18:40:44.578Z,53.40
2019-05-15T18:43:11.953Z,54.10
2019-05-15T18:45:39.462Z,54.70
2019-05-15T18:48:06.838Z,55.00
2019-05-15T18:50:34.021Z,55.40
2019-05-15T18:53:01.412Z,55.90
2019-05-15T18:55:28.938Z,56.20
2019-05-15T18:57:58.410Z,57.40
2019-05-15T19:00:25.860Z,56.80
2019-05-15T19:02:54.231Z,57.20
2019-05-15T19:05:21.732Z,57.40
2019-05-15T19:07:51.628Z,58.00
2019-05-15T19:10:20.028Z,58.10
2019-05-15T19:12:48.408Z,58.60
2019-05-15T19:15:17.908Z,58.90
2019-05-15T19:17:47.473Z,59.30
2019-05-15T19:20:15.372Z,59.90
2019-05-15T19:22:42.679Z,59.80
2019-05-15T19:25:12.862Z,61.60
2019-05-15T19:27:40.093Z,61.50
2019-05-15T19:30:09.351Z,62.20
2019-05-15T19:32:38.866Z,62.60
2019-05-15T19:35:08.052Z,63.00
2019-05-15T19:37:38.413Z,64.00
2019-05-15T19:40:08.389Z,64.60
2019-05-15T19:42:38.159Z,64.60
2019-05-15T19:45:08.595Z,65.60
2019-05-15T19:47:38.399Z,66.20
2019-05-15T19:50:11.285Z,66.60
2019-05-15T19:52:39.029Z,67.00
2019-05-15T19:55:08.899Z,68.30
2019-05-15T19:57:38.727Z,68.90
2019-05-15T20:00:08.291Z,69.80
2019-05-15T20:02:37.902Z,70.90
2019-05-15T20:05:09.221Z,71.80
2019-05-15T20:07:38.992Z,73.00
2019-05-15T20:10:07.504Z,74.70
2019-05-15T20:12:35.654Z,75.50
2019-05-15T20:15:04.071Z,75.60
2019-05-15T20:17:31.666Z,77.40
2019-05-15T20:19:58.956Z,77.60
2019-05-15T20:22:28.342Z,78.80
2019-05-15T20:24:55.883Z,79.60
2019-05-15T20:27:25.270Z,79.80
2019-05-15T20:29:52.674Z,81.30
2019-05-15T20:32:19.940Z,81.10
2019-05-15T20:34:48.329Z,82.30
2019-05-15T20:37:18.303Z,83.20
2019-05-15T20:39:45.589Z,84.30
2019-05-15T20:42:13.826Z,84.70
2019-05-15T20:44:41.088Z,85.70
2019-05-15T20:47:09.028Z,85.80
2019-05-15T20:49:37.799Z,86.90
2019-05-15T20:52:05.427Z,87.90
2019-05-15T20:54:32.735Z,88.70
2019-05-15T20:57:00.349Z,90.00
2019-05-15T20:59:27.772Z,90.10
2019-05-15T21:01:55.339Z,90.30
2019-05-15T21:04:24.387Z,90.60
2019-05-15T21:06:51.785Z,91.40
2019-05-15T21:09:19.032Z,91.60
2019-05-15T21:11:48.279Z,92.10
2019-05-15T21:14:15.531Z,92.00
2019-05-15T21:16:43.054Z,93.40
2019-05-15T21:19:10.400Z,93.10
2019-05-15T21:21:38.641Z,94.00
2019-05-15T21:24:10.277Z,94.50
2019-05-15T21:26:38.249Z,94.40
2019-05-15T21:29:07.755Z,94.80
2019-05-15T21:31:34.629Z,95.10
2019-05-15T21:34:08.507Z,95.10
2019-05-15T21:36:36.125Z,96.00
2019-05-15T21:39:04.918Z,96.80
2019-05-15T21:41:32.707Z,97.20
2019-05-15T21:43:59.946Z,97.90
2019-05-15T21:46:27.406Z,98.20
2019-05-15T21:48:54.974Z,99.00
2019-05-15T21:51:22.115Z,99.30
2019-05-15T21:53:49.373Z,99.90
2019-05-15T21:56:18.819Z,99.90
2019-05-15T21:58:48.357Z,99.90
2019-05-15T22:01:16.035Z,99.90
2019-05-15T22:03:43.284Z,99.90
2019-05-15T22:06:11.280Z,99.90
2019-05-15T22:08:38.670Z,99.90
2019-05-15T22:11:06.248Z,99.90
2019-05-15T22:13:33.607Z,99.90
2019-05-15T22:16:01.368Z,99.90
2019-05-15T22:18:30.332Z,99.90
2019-05-15T22:20:58.574Z,99.90
2019-05-15T22:23:27.874Z,99.90
2019-05-15T22:25:55.181Z,99.90
2019-05-15T22:28:23.073Z,99.90
2019-05-15T22:30:50.846Z,99.90
2019-05-15T22:33:21.025Z,99.90
2019-05-15T22:35:49.633Z,99.90
2019-05-15T22:38:18.090Z,99.90
2019-05-15T22:40:45.741Z,99.90
2019-05-15T22:43:13.080Z,99.90
2019-05-15T22:45:42.287Z,99.90
2019-05-15T22:48:10.489Z,99.90
2019-05-15T22:50:42.408Z,99.90
2019-05-15T22:53:12.227Z,99.90
2019-05-15T22:55:40.550Z,99.90
2019-05-15T22:58:09.638Z,99.90
2019-05-15T23:00:39.255Z,99.90
2019-05-15T23:03:08.424Z,99.90
2019-05-15T23:05:39.142Z,99.90
2019-05-15T23:08:06.750Z,99.90
2019-05-15T23:10:37.931Z,99.90
2019-05-15T23:13:05.796Z,99.90
2019-05-15T23:15:33.713Z,99.90
2019-05-15T23:18:00.938Z,99.90
2019-05-15T23:20:31.497Z,99.90
2019-05-15T23:22:59.409Z,99.90
2019-05-15T23:25:28.692Z,99.90
2019-05-15T23:27:58.187Z,99.90
2019-05-15T23:30:25.113Z,99.90
2019-05-15T23:32:52.374Z,99.90
2019-05-15T23:35:19.648Z,99.90
2019-05-15T23:37:48.571Z,99.90
2019-05-15T23:40:17.979Z,99.90
2019-05-15T23:42:45.675Z,99.90
2019-05-15T23:45:13.410Z,99.90
2019-05-15T23:47:40.697Z,99.90
2019-05-15T23:50:08.357Z,99.90
2019-05-15T23:52:35.610Z,99.90
2019-05-15T23:55:05.130Z,99.90
2019-05-15T23:57:32.301Z,99.90
2019-05-15T23:59:59.675Z,99.90
